sensor_id;sensor_type;location;lat;lon;timestamp;pressure;altitude;pressure_sealevel;temperature;humidity
79077;BME280;68477;42.698;23.342;2024-01-11T00:01:47;96369.06;;;-5.30;84.23
79077;BME280;68477;42.698;23.342;2024-01-11T00:04:14;96367.78;;;-5.71;85.87
79077;BME280;68477;42.698;23.342;2024-01-11T00:06:43;96367.69;;;-5.68;85.42
79077;BME280;68477;42.698;23.342;2024-01-11T00:09:09;96358.91;;;-5.87;85.68
79077;BME280;68477;42.698;23.342;2024-01-11T00:11:34;96363.81;;;-5.81;85.01
79077;BME280;68477;42.698;23.342;2024-01-11T00:14:00;96351.84;;;-5.52;85.46
79077;BME280;68477;42.698;23.342;2024-01-11T00:16:25;96348.53;;;-5.56;84.93
79077;BME280;68477;42.698;23.342;2024-01-11T00:18:51;96343.75;;;-5.67;84.31
79077;BME280;68477;42.698;23.342;2024-01-11T00:21:17;96354.13;;;-5.17;82.93
79077;BME280;68477;42.698;23.342;2024-01-11T00:23:42;96350.91;;;-5.50;84.37
79077;BME280;68477;42.698;23.342;2024-01-11T00:26:08;96344.28;;;-5.04;82.78
79077;BME280;68477;42.698;23.342;2024-01-11T00:28:33;96351.25;;;-5.34;83.06
79077;BME280;68477;42.698;23.342;2024-01-11T00:30:59;96347.81;;;-5.33;82.31
79077;BME280;68477;42.698;23.342;2024-01-11T00:33:24;96349.28;;;-5.26;82.80
79077;BME280;68477;42.698;23.342;2024-01-11T00:35:50;96345.81;;;-4.99;80.90
79077;BME280;68477;42.698;23.342;2024-01-11T00:38:15;96346.25;;;-4.86;80.20
79077;BME280;68477;42.698;23.342;2024-01-11T00:40:41;96351.78;;;-4.73;79.53
79077;BME280;68477;42.698;23.342;2024-01-11T00:43:06;96339.69;;;-4.94;79.75
79077;BME280;68477;42.698;23.342;2024-01-11T00:45:32;96333.44;;;-4.87;79.11
79077;BME280;68477;42.698;23.342;2024-01-11T00:47:57;96337.44;;;-5.04;78.48
79077;BME280;68477;42.698;23.342;2024-01-11T00:50:23;96338.50;;;-4.84;78.36
79077;BME280;68477;42.698;23.342;2024-01-11T00:52:48;96339.59;;;-4.91;79.50
79077;BME280;68477;42.698;23.342;2024-01-11T00:55:14;96333.25;;;-5.06;78.03
79077;BME280;68477;42.698;23.342;2024-01-11T00:57:41;96329.03;;;-5.07;78.70
79077;BME280;68477;42.698;23.342;2024-01-11T01:00:07;96317.13;;;-5.10;78.44
79077;BME280;68477;42.698;23.342;2024-01-11T01:02:33;96324.09;;;-5.13;79.45
79077;BME280;68477;42.698;23.342;2024-01-11T01:04:58;96329.91;;;-5.08;78.92
79077;BME280;68477;42.698;23.342;2024-01-11T01:07:24;96328.91;;;-5.04;78.15
79077;BME280;68477;42.698;23.342;2024-01-11T01:09:49;96325.66;;;-5.36;79.05
79077;BME280;68477;42.698;23.342;2024-01-11T01:12:15;96325.63;;;-5.34;80.36
79077;BME280;68477;42.698;23.342;2024-01-11T01:14:41;96322.56;;;-5.19;79.27
79077;BME280;68477;42.698;23.342;2024-01-11T01:17:06;96325.72;;;-4.86;78.27
79077;BME280;68477;42.698;23.342;2024-01-11T01:19:32;96324.72;;;-5.07;77.82
79077;BME280;68477;42.698;23.342;2024-01-11T01:21:58;96325.97;;;-5.18;78.74
79077;BME280;68477;42.698;23.342;2024-01-11T01:24:24;96335.78;;;-5.31;79.55
79077;BME280;68477;42.698;23.342;2024-01-11T01:26:49;96325.38;;;-5.27;79.34
79077;BME280;68477;42.698;23.342;2024-01-11T01:29:15;96317.00;;;-5.32;79.62
79077;BME280;68477;42.698;23.342;2024-01-11T01:31:40;96320.59;;;-5.37;79.89
79077;BME280;68477;42.698;23.342;2024-01-11T01:34:07;96315.44;;;-5.11;78.35
79077;BME280;68477;42.698;23.342;2024-01-11T01:36:32;96316.66;;;-4.96;76.61
79077;BME280;68477;42.698;23.342;2024-01-11T01:38:58;96318.19;;;-5.42;78.11
79077;BME280;68477;42.698;23.342;2024-01-11T01:41:23;96313.69;;;-5.88;81.19
79077;BME280;68477;42.698;23.342;2024-01-11T01:43:49;96307.19;;;-5.98;81.81
79077;BME280;68477;42.698;23.342;2024-01-11T01:46:19;96298.25;;;-6.13;81.65
79077;BME280;68477;42.698;23.342;2024-01-11T01:48:47;96301.31;;;-6.02;80.97
79077;BME280;68477;42.698;23.342;2024-01-11T01:51:12;96296.25;;;-5.77;80.85
79077;BME280;68477;42.698;23.342;2024-01-11T01:53:39;96308.09;;;-6.01;81.09
79077;BME280;68477;42.698;23.342;2024-01-11T01:56:06;96289.13;;;-6.22;82.03
79077;BME280;68477;42.698;23.342;2024-01-11T01:58:33;96300.00;;;-6.15;81.67
79077;BME280;68477;42.698;23.342;2024-01-11T02:00:59;96288.50;;;-6.02;80.74
79077;BME280;68477;42.698;23.342;2024-01-11T02:03:28;96290.50;;;-6.10;80.56
79077;BME280;68477;42.698;23.342;2024-01-11T02:05:55;96286.06;;;-6.33;81.25
79077;BME280;68477;42.698;23.342;2024-01-11T02:08:22;96287.91;;;-6.38;82.62
79077;BME280;68477;42.698;23.342;2024-01-11T02:10:51;96276.34;;;-6.51;82.98
79077;BME280;68477;42.698;23.342;2024-01-11T02:13:17;96283.00;;;-6.46;82.74
79077;BME280;68477;42.698;23.342;2024-01-11T02:15:44;96285.28;;;-6.36;82.14
79077;BME280;68477;42.698;23.342;2024-01-11T02:18:10;96276.34;;;-6.22;82.00
79077;BME280;68477;42.698;23.342;2024-01-11T02:20:36;96273.22;;;-6.31;81.52
79077;BME280;68477;42.698;23.342;2024-01-11T02:23:05;96275.72;;;-6.30;82.11
79077;BME280;68477;42.698;23.342;2024-01-11T02:25:31;96277.97;;;-6.19;80.45
79077;BME280;68477;42.698;23.342;2024-01-11T02:27:57;96277.59;;;-6.07;80.48
79077;BME280;68477;42.698;23.342;2024-01-11T02:30:22;96267.59;;;-5.88;80.03
79077;BME280;68477;42.698;23.342;2024-01-11T02:32:51;96270.31;;;-5.93;79.21
79077;BME280;68477;42.698;23.342;2024-01-11T02:35:18;96271.53;;;-6.62;81.53
79077;BME280;68477;42.698;23.342;2024-01-11T02:37:44;96287.13;;;-6.12;80.39
79077;BME280;68477;42.698;23.342;2024-01-11T02:40:13;96279.84;;;-6.54;82.27
79077;BME280;68477;42.698;23.342;2024-01-11T02:42:39;96278.53;;;-6.68;82.67
79077;BME280;68477;42.698;23.342;2024-01-11T02:45:05;96273.22;;;-6.61;83.06
79077;BME280;68477;42.698;23.342;2024-01-11T02:47:31;96273.47;;;-6.40;82.31
79077;BME280;68477;42.698;23.342;2024-01-11T02:49:56;96267.13;;;-6.01;80.79
79077;BME280;68477;42.698;23.342;2024-01-11T02:52:25;96265.84;;;-6.14;79.89
79077;BME280;68477;42.698;23.342;2024-01-11T02:54:50;96262.28;;;-6.08;79.76
79077;BME280;68477;42.698;23.342;2024-01-11T02:57:16;96269.50;;;-6.21;80.29
79077;BME280;68477;42.698;23.342;2024-01-11T02:59:43;96256.31;;;-6.09;80.05
79077;BME280;68477;42.698;23.342;2024-01-11T03:02:09;96264.19;;;-5.89;79.64
79077;BME280;68477;42.698;23.342;2024-01-11T03:04:36;96263.34;;;-6.16;80.58
79077;BME280;68477;42.698;23.342;2024-01-11T03:07:01;96259.66;;;-6.94;83.32
79077;BME280;68477;42.698;23.342;2024-01-11T03:09:27;96263.09;;;-6.95;84.47
79077;BME280;68477;42.698;23.342;2024-01-11T03:11:53;96261.25;;;-6.90;85.41
79077;BME280;68477;42.698;23.342;2024-01-11T03:14:18;96254.72;;;-6.70;84.48
79077;BME280;68477;42.698;23.342;2024-01-11T03:16:44;96253.31;;;-6.81;84.43
79077;BME280;68477;42.698;23.342;2024-01-11T03:19:10;96264.25;;;-6.76;85.24
79077;BME280;68477;42.698;23.342;2024-01-11T03:21:41;96261.66;;;-7.05;85.58
79077;BME280;68477;42.698;23.342;2024-01-11T03:24:06;96257.78;;;-6.87;85.56
79077;BME280;68477;42.698;23.342;2024-01-11T03:26:32;96254.34;;;-6.86;85.75
79077;BME280;68477;42.698;23.342;2024-01-11T03:28:57;96257.91;;;-6.62;84.42
79077;BME280;68477;42.698;23.342;2024-01-11T03:31:23;96261.47;;;-6.38;83.04
79077;BME280;68477;42.698;23.342;2024-01-11T03:33:48;96252.81;;;-6.34;82.98
79077;BME280;68477;42.698;23.342;2024-01-11T03:36:14;96250.72;;;-6.50;83.86
79077;BME280;68477;42.698;23.342;2024-01-11T03:38:40;96251.44;;;-6.46;83.97
79077;BME280;68477;42.698;23.342;2024-01-11T03:41:09;96249.72;;;-6.46;83.55
79077;BME280;68477;42.698;23.342;2024-01-11T03:43:37;96252.13;;;-6.39;83.62
79077;BME280;68477;42.698;23.342;2024-01-11T03:46:03;96244.88;;;-6.53;84.21
79077;BME280;68477;42.698;23.342;2024-01-11T03:48:30;96243.03;;;-6.50;83.99
79077;BME280;68477;42.698;23.342;2024-01-11T03:50:55;96241.66;;;-6.89;84.94
79077;BME280;68477;42.698;23.342;2024-01-11T03:53:21;96235.06;;;-7.29;87.45
79077;BME280;68477;42.698;23.342;2024-01-11T03:55:46;96236.81;;;-7.31;87.70
79077;BME280;68477;42.698;23.342;2024-01-11T03:58:12;96243.72;;;-7.35;87.94
79077;BME280;68477;42.698;23.342;2024-01-11T04:00:37;96238.00;;;-7.44;88.24
79077;BME280;68477;42.698;23.342;2024-01-11T04:03:03;96231.53;;;-7.25;88.25
79077;BME280;68477;42.698;23.342;2024-01-11T04:05:29;96228.47;;;-6.76;85.22
79077;BME280;68477;42.698;23.342;2024-01-11T04:07:54;96230.28;;;-6.81;85.07
79077;BME280;68477;42.698;23.342;2024-01-11T04:10:20;96232.81;;;-7.09;86.36
79077;BME280;68477;42.698;23.342;2024-01-11T04:12:45;96230.19;;;-7.38;88.12
79077;BME280;68477;42.698;23.342;2024-01-11T04:15:14;96233.16;;;-6.91;86.57
79077;BME280;68477;42.698;23.342;2024-01-11T04:17:40;96236.88;;;-7.03;86.96
79077;BME280;68477;42.698;23.342;2024-01-11T04:20:06;96226.50;;;-7.28;88.21
79077;BME280;68477;42.698;23.342;2024-01-11T04:22:32;96222.91;;;-6.90;87.89
79077;BME280;68477;42.698;23.342;2024-01-11T04:24:58;96222.66;;;-6.53;85.64
79077;BME280;68477;42.698;23.342;2024-01-11T04:27:23;96218.13;;;-6.43;85.17
79077;BME280;68477;42.698;23.342;2024-01-11T04:29:49;96212.91;;;-6.69;84.91
79077;BME280;68477;42.698;23.342;2024-01-11T04:32:14;96227.00;;;-6.55;84.83
79077;BME280;68477;42.698;23.342;2024-01-11T04:34:40;96230.75;;;-6.38;84.05
79077;BME280;68477;42.698;23.342;2024-01-11T04:37:06;96223.41;;;-6.49;84.53
79077;BME280;68477;42.698;23.342;2024-01-11T04:39:32;96227.38;;;-6.67;85.20
79077;BME280;68477;42.698;23.342;2024-01-11T04:41:57;96232.22;;;-6.87;86.74
79077;BME280;68477;42.698;23.342;2024-01-11T04:44:23;96228.56;;;-6.80;86.35
79077;BME280;68477;42.698;23.342;2024-01-11T04:46:48;96228.44;;;-7.05;86.79
79077;BME280;68477;42.698;23.342;2024-01-11T04:49:14;96231.22;;;-7.13;87.56
79077;BME280;68477;42.698;23.342;2024-01-11T04:51:39;96231.81;;;-7.05;86.22
79077;BME280;68477;42.698;23.342;2024-01-11T04:54:05;96229.00;;;-6.64;85.04
79077;BME280;68477;42.698;23.342;2024-01-11T04:56:31;96238.59;;;-6.43;83.75
79077;BME280;68477;42.698;23.342;2024-01-11T04:58:56;96241.09;;;-6.41;83.74
79077;BME280;68477;42.698;23.342;2024-01-11T05:01:21;96236.09;;;-6.44;83.03
79077;BME280;68477;42.698;23.342;2024-01-11T05:03:48;96239.44;;;-6.72;84.40
79077;BME280;68477;42.698;23.342;2024-01-11T05:06:18;96232.34;;;-6.62;83.94
79077;BME280;68477;42.698;23.342;2024-01-11T05:08:44;96237.09;;;-6.80;85.31
79077;BME280;68477;42.698;23.342;2024-01-11T05:11:16;96230.00;;;-6.70;83.68
79077;BME280;68477;42.698;23.342;2024-01-11T05:13:42;96226.72;;;-7.05;85.70
79077;BME280;68477;42.698;23.342;2024-01-11T05:16:19;96224.81;;;-6.67;84.71
79077;BME280;68477;42.698;23.342;2024-01-11T05:18:45;96222.78;;;-6.57;83.64
79077;BME280;68477;42.698;23.342;2024-01-11T05:21:10;96220.81;;;-6.48;83.44
79077;BME280;68477;42.698;23.342;2024-01-11T05:23:36;96210.44;;;-6.43;83.06
79077;BME280;68477;42.698;23.342;2024-01-11T05:26:03;96212.13;;;-6.71;84.07
79077;BME280;68477;42.698;23.342;2024-01-11T05:28:28;96208.56;;;-6.66;83.82
79077;BME280;68477;42.698;23.342;2024-01-11T05:30:54;96211.56;;;-7.11;85.76
79077;BME280;68477;42.698;23.342;2024-01-11T05:33:20;96209.53;;;-7.30;86.92
79077;BME280;68477;42.698;23.342;2024-01-11T05:35:46;96207.59;;;-6.91;84.87
79077;BME280;68477;42.698;23.342;2024-01-11T05:38:11;96205.81;;;-7.19;85.36
79077;BME280;68477;42.698;23.342;2024-01-11T05:40:37;96206.38;;;-6.78;85.38
79077;BME280;68477;42.698;23.342;2024-01-11T05:43:02;96203.53;;;-6.69;84.33
79077;BME280;68477;42.698;23.342;2024-01-11T05:45:28;96200.59;;;-7.16;85.92
79077;BME280;68477;42.698;23.342;2024-01-11T05:47:53;96193.56;;;-7.08;85.85
79077;BME280;68477;42.698;23.342;2024-01-11T05:50:19;96197.34;;;-6.90;85.50
79077;BME280;68477;42.698;23.342;2024-01-11T05:52:45;96198.47;;;-6.70;84.53
79077;BME280;68477;42.698;23.342;2024-01-11T05:55:10;96189.16;;;-7.32;86.46
79077;BME280;68477;42.698;23.342;2024-01-11T05:57:36;96190.03;;;-7.66;88.96
79077;BME280;68477;42.698;23.342;2024-01-11T06:00:02;96189.19;;;-7.34;87.93
79077;BME280;68477;42.698;23.342;2024-01-11T06:02:27;96191.28;;;-7.17;87.12
79077;BME280;68477;42.698;23.342;2024-01-11T06:04:53;96187.25;;;-7.25;86.77
79077;BME280;68477;42.698;23.342;2024-01-11T06:07:19;96179.88;;;-7.36;87.35
79077;BME280;68477;42.698;23.342;2024-01-11T06:09:44;96185.75;;;-7.03;85.71
79077;BME280;68477;42.698;23.342;2024-01-11T06:12:10;96178.34;;;-7.11;85.85
79077;BME280;68477;42.698;23.342;2024-01-11T06:14:35;96189.53;;;-7.46;86.75
79077;BME280;68477;42.698;23.342;2024-01-11T06:17:01;96177.41;;;-7.39;86.62
79077;BME280;68477;42.698;23.342;2024-01-11T06:19:26;96193.91;;;-6.89;85.44
79077;BME280;68477;42.698;23.342;2024-01-11T06:21:52;96185.63;;;-7.28;86.42
79077;BME280;68477;42.698;23.342;2024-01-11T06:24:17;96177.81;;;-7.22;85.94
79077;BME280;68477;42.698;23.342;2024-01-11T06:26:43;96177.19;;;-7.00;86.03
79077;BME280;68477;42.698;23.342;2024-01-11T06:29:08;96178.72;;;-6.95;85.79
79077;BME280;68477;42.698;23.342;2024-01-11T06:31:34;96176.13;;;-7.23;85.87
79077;BME280;68477;42.698;23.342;2024-01-11T06:33:59;96175.44;;;-7.29;86.98
79077;BME280;68477;42.698;23.342;2024-01-11T06:36:25;96181.94;;;-7.18;87.55
79077;BME280;68477;42.698;23.342;2024-01-11T06:38:50;96171.88;;;-6.65;85.47
79077;BME280;68477;42.698;23.342;2024-01-11T06:41:16;96166.75;;;-6.37;84.33
79077;BME280;68477;42.698;23.342;2024-01-11T06:43:41;96164.91;;;-6.60;84.66
79077;BME280;68477;42.698;23.342;2024-01-11T06:46:07;96166.16;;;-6.73;84.74
79077;BME280;68477;42.698;23.342;2024-01-11T06:48:34;96165.69;;;-6.86;84.74
79077;BME280;68477;42.698;23.342;2024-01-11T06:50:59;96167.09;;;-6.76;84.73
79077;BME280;68477;42.698;23.342;2024-01-11T06:53:25;96165.94;;;-6.65;84.39
79077;BME280;68477;42.698;23.342;2024-01-11T06:55:51;96167.31;;;-6.83;85.38
79077;BME280;68477;42.698;23.342;2024-01-11T06:58:17;96171.13;;;-6.68;84.23
79077;BME280;68477;42.698;23.342;2024-01-11T07:00:43;96165.34;;;-6.47;84.42
79077;BME280;68477;42.698;23.342;2024-01-11T07:03:09;96168.19;;;-6.28;82.93
79077;BME280;68477;42.698;23.342;2024-01-11T07:05:36;96165.06;;;-6.10;82.41
79077;BME280;68477;42.698;23.342;2024-01-11T07:08:01;96165.41;;;-6.21;82.70
79077;BME280;68477;42.698;23.342;2024-01-11T07:10:27;96167.44;;;-6.32;83.00
79077;BME280;68477;42.698;23.342;2024-01-11T07:12:52;96171.22;;;-5.91;81.87
79077;BME280;68477;42.698;23.342;2024-01-11T07:15:18;96165.31;;;-5.68;81.24
79077;BME280;68477;42.698;23.342;2024-01-11T07:17:43;96167.41;;;-6.04;82.34
79077;BME280;68477;42.698;23.342;2024-01-11T07:20:09;96166.84;;;-5.62;81.27
79077;BME280;68477;42.698;23.342;2024-01-11T07:22:35;96156.00;;;-5.45;80.08
79077;BME280;68477;42.698;23.342;2024-01-11T07:25:01;96158.81;;;-5.28;78.48
79077;BME280;68477;42.698;23.342;2024-01-11T07:27:26;96160.03;;;-5.15;77.74
79077;BME280;68477;42.698;23.342;2024-01-11T07:29:52;96161.38;;;-5.28;79.98
79077;BME280;68477;42.698;23.342;2024-01-11T07:32:17;96160.66;;;-5.08;77.42
79077;BME280;68477;42.698;23.342;2024-01-11T07:34:43;96154.19;;;-4.95;77.12
79077;BME280;68477;42.698;23.342;2024-01-11T07:37:08;96154.47;;;-5.03;78.41
79077;BME280;68477;42.698;23.342;2024-01-11T07:39:34;96158.59;;;-4.75;77.63
79077;BME280;68477;42.698;23.342;2024-01-11T07:42:00;96160.13;;;-4.71;77.29
79077;BME280;68477;42.698;23.342;2024-01-11T07:44:26;96157.78;;;-5.24;79.40
79077;BME280;68477;42.698;23.342;2024-01-11T07:46:51;96157.22;;;-4.62;76.96
79077;BME280;68477;42.698;23.342;2024-01-11T07:49:17;96159.13;;;-4.67;78.30
79077;BME280;68477;42.698;23.342;2024-01-11T07:51:42;96157.47;;;-4.91;77.49
79077;BME280;68477;42.698;23.342;2024-01-11T07:54:08;96150.22;;;-4.58;76.26
79077;BME280;68477;42.698;23.342;2024-01-11T07:56:33;96141.50;;;-4.32;75.36
79077;BME280;68477;42.698;23.342;2024-01-11T07:59:00;96144.59;;;-4.02;74.78
79077;BME280;68477;42.698;23.342;2024-01-11T08:01:25;96149.50;;;-3.96;73.80
79077;BME280;68477;42.698;23.342;2024-01-11T08:03:51;96143.84;;;-3.64;73.37
79077;BME280;68477;42.698;23.342;2024-01-11T08:06:17;96138.69;;;-4.04;73.25
79077;BME280;68477;42.698;23.342;2024-01-11T08:08:44;96141.59;;;-3.92;73.07
79077;BME280;68477;42.698;23.342;2024-01-11T08:11:16;96143.53;;;-3.76;71.91
79077;BME280;68477;42.698;23.342;2024-01-11T08:13:42;96147.97;;;-3.39;71.60
79077;BME280;68477;42.698;23.342;2024-01-11T08:16:07;96130.88;;;-3.61;72.08
79077;BME280;68477;42.698;23.342;2024-01-11T08:18:35;96128.16;;;-3.58;71.43
79077;BME280;68477;42.698;23.342;2024-01-11T08:21:00;96129.63;;;-3.52;71.64
79077;BME280;68477;42.698;23.342;2024-01-11T08:23:26;96124.38;;;-3.49;73.33
79077;BME280;68477;42.698;23.342;2024-01-11T08:25:52;96126.31;;;-2.77;69.85
79077;BME280;68477;42.698;23.342;2024-01-11T08:28:20;96128.56;;;-2.88;70.59
79077;BME280;68477;42.698;23.342;2024-01-11T08:30:46;96124.69;;;-2.42;68.56
79077;BME280;68477;42.698;23.342;2024-01-11T08:33:13;96124.06;;;-3.23;74.59
79077;BME280;68477;42.698;23.342;2024-01-11T08:35:39;96128.47;;;-2.87;71.65
79077;BME280;68477;42.698;23.342;2024-01-11T08:38:06;96127.50;;;-2.66;68.48
79077;BME280;68477;42.698;23.342;2024-01-11T08:40:31;96129.16;;;-2.65;67.88
79077;BME280;68477;42.698;23.342;2024-01-11T08:42:57;96127.50;;;-2.66;69.29
79077;BME280;68477;42.698;23.342;2024-01-11T08:45:23;96124.19;;;-2.31;69.56
79077;BME280;68477;42.698;23.342;2024-01-11T08:47:49;96124.53;;;-2.39;67.64
79077;BME280;68477;42.698;23.342;2024-01-11T08:50:15;96122.94;;;-1.54;65.75
79077;BME280;68477;42.698;23.342;2024-01-11T08:52:42;96121.19;;;-0.87;64.46
79077;BME280;68477;42.698;23.342;2024-01-11T08:55:08;96120.72;;;-0.62;62.50
79077;BME280;68477;42.698;23.342;2024-01-11T08:57:33;96107.72;;;-0.61;61.88
79077;BME280;68477;42.698;23.342;2024-01-11T09:00:02;96100.78;;;-0.28;60.25
79077;BME280;68477;42.698;23.342;2024-01-11T09:02:27;96101.16;;;-0.05;59.74
79077;BME280;68477;42.698;23.342;2024-01-11T09:04:53;96095.09;;;-0.35;61.87
79077;BME280;68477;42.698;23.342;2024-01-11T09:07:18;96086.78;;;0.06;60.66
79077;BME280;68477;42.698;23.342;2024-01-11T09:09:44;96083.97;;;-0.51;62.77
79077;BME280;68477;42.698;23.342;2024-01-11T09:12:10;96082.31;;;-0.52;61.38
79077;BME280;68477;42.698;23.342;2024-01-11T09:14:35;96073.69;;;0.81;58.35
79077;BME280;68477;42.698;23.342;2024-01-11T09:17:01;96078.28;;;-0.58;59.91
79077;BME280;68477;42.698;23.342;2024-01-11T09:19:26;96077.22;;;-0.08;61.00
79077;BME280;68477;42.698;23.342;2024-01-11T09:21:52;96076.88;;;0.28;59.68
79077;BME280;68477;42.698;23.342;2024-01-11T09:24:17;96064.72;;;0.73;56.32
79077;BME280;68477;42.698;23.342;2024-01-11T09:26:43;96057.03;;;1.41;54.55
79077;BME280;68477;42.698;23.342;2024-01-11T09:29:08;96062.25;;;1.12;55.08
79077;BME280;68477;42.698;23.342;2024-01-11T09:31:34;96057.97;;;0.70;55.59
79077;BME280;68477;42.698;23.342;2024-01-11T09:33:59;96055.63;;;0.51;56.36
79077;BME280;68477;42.698;23.342;2024-01-11T09:36:25;96055.41;;;-0.34;59.07
79077;BME280;68477;42.698;23.342;2024-01-11T09:38:50;96052.59;;;0.73;57.26
79077;BME280;68477;42.698;23.342;2024-01-11T09:41:16;96042.72;;;2.15;54.36
79077;BME280;68477;42.698;23.342;2024-01-11T09:43:42;96033.53;;;2.49;52.36
79077;BME280;68477;42.698;23.342;2024-01-11T09:46:09;96028.00;;;0.23;57.68
79077;BME280;68477;42.698;23.342;2024-01-11T09:48:38;96021.75;;;1.11;54.83
79077;BME280;68477;42.698;23.342;2024-01-11T09:51:09;96010.91;;;1.19;56.24
79077;BME280;68477;42.698;23.342;2024-01-11T09:53:37;96012.72;;;0.19;57.64
79077;BME280;68477;42.698;23.342;2024-01-11T09:56:07;96005.13;;;1.82;54.78
79077;BME280;68477;42.698;23.342;2024-01-11T09:58:34;95989.66;;;2.82;51.37
79077;BME280;68477;42.698;23.342;2024-01-11T10:01:02;95996.06;;;2.53;51.75
79077;BME280;68477;42.698;23.342;2024-01-11T10:03:28;95992.97;;;3.34;48.52
79077;BME280;68477;42.698;23.342;2024-01-11T10:05:57;95991.03;;;2.88;50.51
79077;BME280;68477;42.698;23.342;2024-01-11T10:08:23;95978.91;;;2.12;50.88
79077;BME280;68477;42.698;23.342;2024-01-11T10:10:48;95984.34;;;1.69;54.87
79077;BME280;68477;42.698;23.342;2024-01-11T10:13:17;95983.19;;;2.51;52.09
79077;BME280;68477;42.698;23.342;2024-01-11T10:15:43;95975.44;;;2.88;49.00
79077;BME280;68477;42.698;23.342;2024-01-11T10:18:09;95970.66;;;2.95;50.05
79077;BME280;68477;42.698;23.342;2024-01-11T10:20:37;95958.81;;;3.14;49.14
79077;BME280;68477;42.698;23.342;2024-01-11T10:23:03;95962.50;;;1.99;54.05
79077;BME280;68477;42.698;23.342;2024-01-11T10:25:28;95959.47;;;3.05;51.54
79077;BME280;68477;42.698;23.342;2024-01-11T10:27:54;95944.50;;;2.85;50.60
79077;BME280;68477;42.698;23.342;2024-01-11T10:30:20;95944.94;;;3.27;49.55
79077;BME280;68477;42.698;23.342;2024-01-11T10:32:48;95931.47;;;2.36;53.05
79077;BME280;68477;42.698;23.342;2024-01-11T10:35:15;95942.44;;;1.63;54.28
79077;BME280;68477;42.698;23.342;2024-01-11T10:37:43;95933.69;;;2.29;53.19
79077;BME280;68477;42.698;23.342;2024-01-11T10:40:10;95932.00;;;1.25;56.03
79077;BME280;68477;42.698;23.342;2024-01-11T10:42:45;95929.25;;;1.13;56.02
79077;BME280;68477;42.698;23.342;2024-01-11T10:45:16;95923.06;;;1.68;55.65
79077;BME280;68477;42.698;23.342;2024-01-11T10:47:50;95915.19;;;1.70;56.43
79077;BME280;68477;42.698;23.342;2024-01-11T10:50:17;95915.22;;;3.07;51.12
79077;BME280;68477;42.698;23.342;2024-01-11T10:53:25;95914.16;;;2.85;52.46
79077;BME280;68477;42.698;23.342;2024-01-11T10:55:41;95905.38;;;2.99;51.35
79077;BME280;68477;42.698;23.342;2024-01-11T10:58:07;95900.13;;;2.13;53.11
79077;BME280;68477;42.698;23.342;2024-01-11T11:00:35;95899.41;;;1.48;57.01
79077;BME280;68477;42.698;23.342;2024-01-11T11:03:02;95891.25;;;2.04;54.28
79077;BME280;68477;42.698;23.342;2024-01-11T11:05:30;95879.28;;;2.02;54.64
79077;BME280;68477;42.698;23.342;2024-01-11T11:07:56;95877.63;;;3.35;51.74
79077;BME280;68477;42.698;23.342;2024-01-11T11:10:27;95873.84;;;3.04;53.04
79077;BME280;68477;42.698;23.342;2024-01-11T11:12:54;95862.31;;;2.47;54.59
79077;BME280;68477;42.698;23.342;2024-01-11T11:15:21;95853.06;;;2.43;54.04
79077;BME280;68477;42.698;23.342;2024-01-11T11:17:49;95852.41;;;2.89;54.18
79077;BME280;68477;42.698;23.342;2024-01-11T11:20:14;95848.97;;;2.65;53.81
79077;BME280;68477;42.698;23.342;2024-01-11T11:22:42;95841.34;;;2.50;55.18
79077;BME280;68477;42.698;23.342;2024-01-11T11:25:23;95836.34;;;1.98;55.88
79077;BME280;68477;42.698;23.342;2024-01-11T11:27:49;95826.16;;;2.08;54.94
79077;BME280;68477;42.698;23.342;2024-01-11T11:30:18;95822.00;;;2.54;55.56
79077;BME280;68477;42.698;23.342;2024-01-11T11:32:45;95812.03;;;4.22;50.74
79077;BME280;68477;42.698;23.342;2024-01-11T11:35:11;95806.56;;;4.25;50.43
79077;BME280;68477;42.698;23.342;2024-01-11T11:37:37;95800.41;;;4.26;50.45
79077;BME280;68477;42.698;23.342;2024-01-11T11:40:10;95802.41;;;5.62;46.24
79077;BME280;68477;42.698;23.342;2024-01-11T11:42:39;95792.25;;;6.60;45.45
79077;BME280;68477;42.698;23.342;2024-01-11T11:45:06;95798.34;;;5.48;46.05
79077;BME280;68477;42.698;23.342;2024-01-11T11:47:37;95784.75;;;7.25;41.14
79077;BME280;68477;42.698;23.342;2024-01-11T11:50:05;95789.94;;;7.44;40.69
79077;BME280;68477;42.698;23.342;2024-01-11T11:52:38;95786.59;;;7.71;41.58
79077;BME280;68477;42.698;23.342;2024-01-11T11:55:05;95784.97;;;7.61;41.88
79077;BME280;68477;42.698;23.342;2024-01-11T11:57:31;95778.28;;;8.23;39.79
79077;BME280;68477;42.698;23.342;2024-01-11T11:59:58;95763.16;;;8.16;39.74
79077;BME280;68477;42.698;23.342;2024-01-11T12:02:27;95759.56;;;8.17;40.03
79077;BME280;68477;42.698;23.342;2024-01-11T12:04:53;95757.53;;;7.65;41.02
79077;BME280;68477;42.698;23.342;2024-01-11T12:07:22;95751.19;;;7.67;42.14
79077;BME280;68477;42.698;23.342;2024-01-11T12:09:49;95760.56;;;8.44;40.32
79077;BME280;68477;42.698;23.342;2024-01-11T12:12:16;95744.91;;;8.25;40.52
79077;BME280;68477;42.698;23.342;2024-01-11T12:14:43;95743.22;;;9.32;38.98
79077;BME280;68477;42.698;23.342;2024-01-11T12:17:09;95731.34;;;9.46;39.30
79077;BME280;68477;42.698;23.342;2024-01-11T12:19:34;95729.81;;;9.87;38.68
79077;BME280;68477;42.698;23.342;2024-01-11T12:22:00;95737.38;;;7.28;42.54
79077;BME280;68477;42.698;23.342;2024-01-11T12:24:25;95724.44;;;8.38;42.67
79077;BME280;68477;42.698;23.342;2024-01-11T12:26:52;95715.28;;;9.49;39.80
79077;BME280;68477;42.698;23.342;2024-01-11T12:29:19;95725.44;;;8.00;42.44
79077;BME280;68477;42.698;23.342;2024-01-11T12:31:45;95710.56;;;8.00;42.97
79077;BME280;68477;42.698;23.342;2024-01-11T12:34:14;95706.81;;;8.93;40.35
79077;BME280;68477;42.698;23.342;2024-01-11T12:36:40;95702.69;;;9.52;40.34
79077;BME280;68477;42.698;23.342;2024-01-11T12:39:06;95702.19;;;9.57;40.84
79077;BME280;68477;42.698;23.342;2024-01-11T12:41:32;95703.66;;;7.06;45.39
79077;BME280;68477;42.698;23.342;2024-01-11T12:43:58;95694.47;;;7.95;42.29
79077;BME280;68477;42.698;23.342;2024-01-11T12:46:24;95683.16;;;7.95;42.22
79077;BME280;68477;42.698;23.342;2024-01-11T12:48:50;95688.91;;;8.71;41.93